Time;durP1;ratioP1;P1;durP2;ratioP2;P2;SDS_P1;SDS_P2;PMS_P1;PMS_P2;Temp;Humidity;BMP_temperature;BMP_pressure;BME280_temperature;BME280_humidity;BME280_pressure;Samples;Min_cycle;Max_cycle;Signal;HPM_P1;HPM_P2
2021/10/21 00:00:18;;;;;;;24.10;21.63;;;;;;;9.82;100.00;98176.38;2071234;28;20291;-78
2021/10/21 00:01:19;;;;;;;24.92;22.23;;;;;;;9.77;100.00;98168.50;2071724;28;20216;-78
2021/10/21 00:02:21;;;;;;;24.83;22.07;;;;;;;9.77;100.00;98171.19;2079219;28;20701;-78
2021/10/21 00:03:24;;;;;;;25.92;22.15;;;;;;;9.70;100.00;98165.53;2078341;28;20560;-79
2021/10/21 00:04:26;;;;;;;26.88;21.65;;;;;;;9.69;100.00;98171.94;2079621;28;20791;-78
2021/10/21 00:05:27;;;;;;;24.02;21.50;;;;;;;9.63;100.00;98165.97;2078852;28;20223;-78
2021/10/21 00:06:28;;;;;;;25.88;21.63;;;;;;;9.58;100.00;98161.59;2071184;28;20223;-78
2021/10/21 00:07:29;;;;;;;23.98;21.40;;;;;;;9.55;100.00;98162.19;2079808;28;20226;-77
2021/10/21 00:08:31;;;;;;;23.00;20.63;;;;;;;9.52;100.00;98146.84;2072342;28;20302;-77
2021/10/21 00:09:32;;;;;;;24.77;21.25;;;;;;;9.47;100.00;98151.53;2063493;28;20259;-78
2021/10/21 00:10:35;;;;;;;24.83;21.77;;;;;;;9.43;100.00;98164.69;2063582;28;20216;-77
2021/10/21 00:11:39;;;;;;;23.85;21.42;;;;;;;9.39;100.00;98158.44;2079280;28;20239;-79
2021/10/21 00:12:41;;;;;;;23.65;21.17;;;;;;;9.35;100.00;98162.78;2071736;28;20223;-77
2021/10/21 00:13:42;;;;;;;27.05;21.65;;;;;;;9.30;100.00;98161.06;2071533;28;20239;-78
2021/10/21 00:14:44;;;;;;;24.60;22.00;;;;;;;9.27;100.00;98158.22;2071665;28;20230;-77
2021/10/21 00:15:45;;;;;;;23.65;21.13;;;;;;;9.25;100.00;98161.19;2079992;28;20231;-77
2021/10/21 00:16:49;;;;;;;23.10;20.63;;;;;;;9.24;100.00;98158.84;2071435;28;20303;-77
2021/10/21 00:17:49;;;;;;;25.10;20.95;;;;;;;9.20;100.00;98158.66;2071832;28;20606;-77
2021/10/21 00:18:51;;;;;;;24.57;21.97;;;;;;;9.18;100.00;98162.75;2079900;28;20302;-78
2021/10/21 00:19:52;;;;;;;22.77;20.42;;;;;;;9.20;100.00;98160.56;2079022;28;20243;-78
2021/10/21 00:20:54;;;;;;;23.50;20.97;;;;;;;9.23;100.00;98150.09;2071367;28;20223;-78
2021/10/21 00:21:55;;;;;;;23.10;20.80;;;;;;;9.32;100.00;98147.44;2062901;28;20708;-77
2021/10/21 00:23:01;;;;;;;22.60;20.30;;;;;;;9.40;100.00;98153.91;2071433;28;20625;-78
2021/10/21 00:24:03;;;;;;;23.10;20.55;;;;;;;9.43;100.00;98146.06;2071547;28;20695;-78
2021/10/21 00:25:06;;;;;;;24.60;20.70;;;;;;;9.42;100.00;98143.72;2071830;28;20231;-78
2021/10/21 00:26:07;;;;;;;22.92;20.55;;;;;;;9.39;100.00;98147.78;2081254;28;20701;-79
2021/10/21 00:27:10;;;;;;;24.80;21.13;;;;;;;9.34;100.00;98151.38;2072417;28;20649;-78
2021/10/21 00:28:14;;;;;;;23.70;21.40;;;;;;;9.29;100.00;98145.38;2071602;28;20282;-78
2021/10/21 00:29:16;;;;;;;23.55;21.17;;;;;;;9.25;100.00;98153.22;2063707;28;20224;-78
2021/10/21 00:30:19;;;;;;;24.40;21.67;;;;;;;9.20;100.00;98155.22;2071444;28;20232;-78
2021/10/21 00:31:23;;;;;;;24.90;22.52;;;;;;;9.16;100.00;98152.41;2071410;28;20252;-78
2021/10/21 00:32:25;;;;;;;24.20;21.80;;;;;;;9.10;100.00;98150.19;2063366;28;20232;-78
2021/10/21 00:33:26;;;;;;;23.83;21.48;;;;;;;9.04;100.00;98149.56;2063421;28;20286;-78
2021/10/21 00:34:28;;;;;;;25.83;22.17;;;;;;;8.97;100.00;98139.38;2063304;28;20288;-78
2021/10/21 00:35:30;;;;;;;23.35;21.15;;;;;;;8.94;100.00;98137.31;2063263;28;20644;-78
2021/10/21 00:36:31;;;;;;;23.42;21.10;;;;;;;8.89;100.00;98134.00;2071539;28;20273;-78
2021/10/21 00:37:33;;;;;;;29.85;22.17;;;;;;;8.88;100.00;98141.22;2071455;28;20366;-78
2021/10/21 00:38:35;;;;;;;25.45;22.70;;;;;;;8.82;100.00;98133.66;2079061;28;20231;-78
2021/10/21 00:39:36;;;;;;;24.20;21.77;;;;;;;8.78;100.00;98133.50;2079354;28;20211;-78
2021/10/21 00:40:37;;;;;;;23.92;21.52;;;;;;;8.74;100.00;98143.94;2087222;28;20645;-78
2021/10/21 00:41:39;;;;;;;24.83;21.60;;;;;;;8.69;100.00;98135.34;2079527;28;20301;-78
2021/10/21 00:42:41;;;;;;;24.05;21.55;;;;;;;8.65;100.00;98131.72;2079496;28;20234;-77
2021/10/21 00:43:48;;;;;;;24.65;21.65;;;;;;;8.60;100.00;98134.47;2079376;28;20227;-78
2021/10/21 00:44:49;;;;;;;23.83;21.33;;;;;;;8.57;100.00;98127.91;2079126;28;20318;-77
2021/10/21 00:45:51;;;;;;;23.70;21.30;;;;;;;8.52;100.00;98129.94;2071400;28;20228;-77
2021/10/21 00:46:52;;;;;;;23.92;21.17;;;;;;;8.49;100.00;98126.78;2078921;28;20302;-77
2021/10/21 00:47:54;;;;;;;24.13;21.60;;;;;;;8.47;100.00;98128.97;2079626;28;20223;-78
2021/10/21 00:48:55;;;;;;;23.52;21.20;;;;;;;8.45;100.00;98133.03;2079397;28;20231;-78
2021/10/21 00:49:56;;;;;;;28.43;22.17;;;;;;;8.41;100.00;98127.50;2071280;28;20286;-78
2021/10/21 00:50:57;;;;;;;23.35;20.90;;;;;;;8.41;100.00;98130.16;2071448;28;20290;-78
2021/10/21 00:52:00;;;;;;;24.13;21.67;;;;;;;8.40;100.00;98127.81;2071359;28;20690;-77
2021/10/21 00:53:01;;;;;;;24.40;21.80;;;;;;;8.39;100.00;98137.66;2071545;28;20223;-78
2021/10/21 00:54:04;;;;;;;29.08;22.13;;;;;;;8.39;100.00;98137.66;2079868;28;20220;-77
2021/10/21 00:55:07;;;;;;;24.35;21.83;;;;;;;8.43;100.00;98138.66;2071501;28;20247;-77
2021/10/21 00:56:13;;;;;;;26.85;22.65;;;;;;;8.41;100.00;98137.34;2071189;28;20301;-78
2021/10/21 00:57:15;;;;;;;24.60;21.42;;;;;;;8.53;100.00;98137.59;2071907;28;20226;-77
2021/10/21 00:58:18;;;;;;;24.23;21.92;;;;;;;8.55;100.00;98140.72;2079677;28;20231;-78
2021/10/21 00:59:21;;;;;;;24.33;22.13;;;;;;;8.69;100.00;98140.66;2078959;28;20361;-78
2021/10/21 01:00:22;;;;;;;23.90;21.40;;;;;;;8.74;100.00;98135.19;2071384;28;20228;-77
2021/10/21 01:01:24;;;;;;;27.58;22.02;;;;;;;8.76;100.00;98127.69;2079178;28;20227;-78
2021/10/21 01:02:26;;;;;;;24.65;22.10;;;;;;;8.81;100.00;98127.56;2079068;28;20306;-78
2021/10/21 01:03:27;;;;;;;25.90;22.85;;;;;;;8.94;100.00;98126.66;2079487;28;20373;-78
2021/10/21 01:04:32;;;;;;;23.53;21.33;;;;;;;9.01;100.00;98126.22;2079471;28;20215;-77
2021/10/21 01:05:33;;;;;;;25.90;22.67;;;;;;;9.03;100.00;98119.50;2079383;28;20543;-77
2021/10/21 01:06:35;;;;;;;23.75;21.25;;;;;;;9.05;100.00;98111.22;2071442;28;20686;-77
2021/10/21 01:07:36;;;;;;;23.35;20.98;;;;;;;9.05;100.00;98112.00;2079482;28;20257;-77
2021/10/21 01:08:38;;;;;;;23.47;20.70;;;;;;;9.04;100.00;98112.31;2079044;28;20234;-79
2021/10/21 01:09:39;;;;;;;23.40;21.27;;;;;;;8.98;100.00;98111.66;2079716;28;20227;-78
2021/10/21 01:10:41;;;;;;;23.95;21.40;;;;;;;8.95;100.00;98116.81;2079438;28;20246;-77
2021/10/21 01:11:42;;;;;;;24.05;21.67;;;;;;;8.88;100.00;98106.63;2071418;28;20597;-78
2021/10/21 01:12:47;;;;;;;23.97;21.57;;;;;;;8.84;100.00;98113.63;2079604;28;20219;-78
2021/10/21 01:13:50;;;;;;;23.60;21.10;;;;;;;8.78;100.00;98107.69;2079427;28;20486;-77
2021/10/21 01:14:51;;;;;;;24.95;21.27;;;;;;;8.75;100.00;98113.59;2079514;28;20249;-77
2021/10/21 01:16:02;;;;;;;28.65;21.25;;;;;;;8.69;100.00;98108.75;2070948;28;20650;-77
2021/10/21 01:17:03;;;;;;;23.40;20.98;;;;;;;8.65;100.00;98107.78;2079665;28;20231;-77
2021/10/21 01:18:04;;;;;;;23.45;21.17;;;;;;;8.62;100.00;98108.41;2080213;28;20223;-77
2021/10/21 01:19:15;;;;;;;24.87;21.03;;;;;;;8.56;100.00;98107.75;2079422;28;20298;-77
2021/10/21 01:20:18;;;;;;;23.52;21.33;;;;;;;8.53;100.00;98100.38;2072159;28;20223;-78
2021/10/21 01:21:20;;;;;;;23.55;21.15;;;;;;;8.49;100.00;98097.53;2079436;28;20227;-78
2021/10/21 01:22:21;;;;;;;23.98;21.48;;;;;;;8.41;100.00;98087.63;2079424;28;20230;-78
2021/10/21 01:23:23;;;;;;;25.43;21.73;;;;;;;8.35;100.00;98083.56;2066767;28;20255;-79
2021/10/21 01:24:25;;;;;;;24.15;21.85;;;;;;;8.30;100.00;98082.88;2063124;28;20220;-78
2021/10/21 01:25:29;;;;;;;24.23;21.67;;;;;;;8.26;100.00;98081.94;2071091;28;20286;-78
2021/10/21 01:26:31;;;;;;;24.05;21.65;;;;;;;8.22;100.00;98084.38;2063462;28;20217;-78
2021/10/21 01:27:33;;;;;;;23.65;21.25;;;;;;;8.17;100.00;98077.34;2071287;28;20227;-78
2021/10/21 01:28:33;;;;;;;24.00;21.70;;;;;;;8.13;100.00;98072.94;2079462;28;20677;-78
2021/10/21 01:29:36;;;;;;;24.67;22.07;;;;;;;8.08;100.00;98078.34;2071273;28;20704;-77
2021/10/21 01:30:38;;;;;;;23.80;21.50;;;;;;;8.06;100.00;98075.22;2063371;28;20239;-78
2021/10/21 01:31:39;;;;;;;23.85;21.27;;;;;;;8.03;100.00;98081.94;2064359;28;20267;-77
2021/10/21 01:32:43;;;;;;;24.43;21.80;;;;;;;8.01;100.00;98072.72;2071174;28;20781;-77
2021/10/21 01:33:48;;;;;;;23.77;21.27;;;;;;;7.99;100.00;98072.19;2070754;28;20608;-78
2021/10/21 01:34:49;;;;;;;23.88;21.42;;;;;;;7.99;100.00;98069.53;2071385;28;20228;-77
2021/10/21 01:35:52;;;;;;;23.80;21.40;;;;;;;8.00;100.00;98076.47;2070656;28;20223;-77
2021/10/21 01:36:54;;;;;;;23.83;21.45;;;;;;;8.00;100.00;98071.16;2072742;28;20258;-78
2021/10/21 01:37:56;;;;;;;24.05;21.35;;;;;;;8.05;100.00;98078.97;2071178;28;20236;-77
2021/10/21 01:38:56;;;;;;;23.00;20.83;;;;;;;8.09;100.00;98082.59;2071171;28;20270;-78
2021/10/21 01:40:00;;;;;;;23.50;21.27;;;;;;;8.06;100.00;98069.91;2071770;28;20228;-78
2021/10/21 01:41:01;;;;;;;24.25;21.75;;;;;;;8.06;100.00;98070.69;2072051;28;20216;-77
2021/10/21 01:42:03;;;;;;;25.93;22.13;;;;;;;8.05;100.00;98061.16;2070779;28;20255;-78
2021/10/21 01:43:04;;;;;;;23.80;21.38;;;;;;;8.04;100.00;98064.13;2071213;28;20252;-77
2021/10/21 01:44:06;;;;;;;23.70;21.30;;;;;;;8.04;100.00;98062.25;2079400;28;20721;-77
2021/10/21 01:45:15;;;;;;;22.70;20.40;;;;;;;8.04;100.00;98061.47;2078983;28;20815;-79
2021/10/21 01:46:17;;;;;;;23.83;21.52;;;;;;;8.03;100.00;98054.59;2071430;28;20224;-77
2021/10/21 01:47:19;;;;;;;24.45;21.45;;;;;;;8.04;100.00;98061.47;2063281;28;20312;-77
2021/10/21 01:48:21;;;;;;;22.98;20.77;;;;;;;8.01;100.00;98064.75;2071144;28;20693;-77
2021/10/21 01:49:22;;;;;;;23.83;21.52;;;;;;;7.99;100.00;98065.03;2087051;28;20270;-78
2021/10/21 01:50:24;;;;;;;24.70;22.03;;;;;;;7.99;100.00;98057.06;2079284;28;20229;-77
2021/10/21 01:51:26;;;;;;;26.83;22.33;;;;;;;7.97;100.00;98055.78;2078923;28;20227;-77
2021/10/21 01:52:28;;;;;;;24.00;21.77;;;;;;;7.96;100.00;98056.88;2079434;28;20238;-77
2021/10/21 01:53:31;;;;;;;25.38;22.77;;;;;;;7.91;100.00;98055.94;2080612;28;20306;-77
2021/10/21 01:54:33;;;;;;;25.95;23.00;;;;;;;7.91;100.00;98058.59;2070737;28;20798;-77
2021/10/21 01:55:34;;;;;;;25.38;22.75;;;;;;;7.89;100.00;98060.75;2070761;28;20232;-77
2021/10/21 01:56:35;;;;;;;25.43;23.03;;;;;;;7.90;100.00;98059.66;2071207;28;20224;-77
2021/10/21 01:57:37;;;;;;;24.73;22.42;;;;;;;7.90;100.00;98059.66;2063071;28;20298;-77
2021/10/21 01:58:38;;;;;;;24.77;22.08;;;;;;;7.91;100.00;98050.63;2072797;28;20220;-78
2021/10/21 01:59:39;;;;;;;24.23;21.77;;;;;;;7.90;100.00;98050.91;2071293;28;20227;-77
2021/10/21 02:00:41;;;;;;;25.83;21.73;;;;;;;7.88;100.00;98050.44;2063008;28;20318;-77
2021/10/21 02:01:43;;;;;;;23.30;20.98;;;;;;;7.90;100.00;98051.69;2071218;28;20285;-77
2021/10/21 02:02:46;;;;;;;23.70;21.38;;;;;;;7.88;100.00;98055.75;2070976;28;20687;-77
2021/10/21 02:03:47;;;;;;;24.00;21.55;;;;;;;7.88;100.00;98053.88;2071065;28;20219;-77
2021/10/21 02:04:48;;;;;;;23.57;21.23;;;;;;;7.87;100.00;98047.00;2063068;28;20248;-77
2021/10/21 02:05:49;;;;;;;23.33;20.92;;;;;;;7.86;100.00;98055.25;2071129;28;20307;-77
2021/10/21 02:06:52;;;;;;;24.10;21.60;;;;;;;7.84;100.00;98047.59;2071073;28;20235;-78
2021/10/21 02:07:55;;;;;;;25.00;22.20;;;;;;;7.83;100.00;98053.22;2072651;28;20668;-77
2021/10/21 02:08:57;;;;;;;23.92;21.45;;;;;;;7.81;100.00;98037.56;2071797;28;20232;-77
2021/10/21 02:09:58;;;;;;;22.98;20.67;;;;;;;7.80;100.00;98051.94;2071083;28;20227;-77
2021/10/21 02:10:59;;;;;;;23.57;21.20;;;;;;;7.77;100.00;98047.25;2070937;28;20306;-77
2021/10/21 02:12:00;;;;;;;24.02;21.73;;;;;;;7.76;100.00;98048.31;2072120;28;20232;-78
2021/10/21 02:13:02;;;;;;;23.60;21.37;;;;;;;7.75;100.00;98049.41;2068525;28;20220;-77
2021/10/21 02:14:03;;;;;;;25.65;22.23;;;;;;;7.77;100.00;98046.44;2072682;28;20643;-77
2021/10/21 02:15:07;;;;;;;25.50;22.73;;;;;;;7.76;100.00;98050.97;2073252;28;20290;-77
2021/10/21 02:16:09;;;;;;;23.48;21.17;;;;;;;7.76;100.00;98043.00;2073912;28;20224;-78
2021/10/21 02:17:10;;;;;;;23.65;21.25;;;;;;;7.79;100.00;98039.75;2072653;28;20262;-77
2021/10/21 02:18:12;;;;;;;22.53;20.47;;;;;;;7.83;100.00;98039.94;2080606;28;20227;-77
2021/10/21 02:19:13;;;;;;;23.85;21.50;;;;;;;7.81;100.00;98037.56;2072344;28;20227;-77
2021/10/21 02:20:15;;;;;;;23.93;21.43;;;;;;;7.80;100.00;98038.66;2064966;28;20236;-77
2021/10/21 02:21:16;;;;;;;24.55;21.95;;;;;;;7.79;100.00;98038.97;2071998;28;20247;-77
2021/10/21 02:22:20;;;;;;;24.73;22.07;;;;;;;7.77;100.00;98041.94;2080438;28;20693;-77
2021/10/21 02:23:21;;;;;;;24.70;22.33;;;;;;;7.81;100.00;98039.44;2072245;28;20228;-78
2021/10/21 02:24:22;;;;;;;24.10;21.73;;;;;;;7.82;100.00;98038.38;2076050;28;20605;-78
2021/10/21 02:25:24;;;;;;;24.33;21.80;;;;;;;7.86;100.00;98040.13;2076634;28;20251;-77
2021/10/21 02:26:25;;;;;;;25.08;22.42;;;;;;;7.87;100.00;98028.41;2074795;28;20228;-78
2021/10/21 02:27:27;;;;;;;24.43;22.00;;;;;;;7.89;100.00;98036.06;2072374;28;20232;-78
2021/10/21 02:28:30;;;;;;;22.73;20.58;;;;;;;7.87;100.00;98025.75;2072621;28;20300;-78
2021/10/21 02:29:33;;;;;;;23.73;21.42;;;;;;;7.90;100.00;98024.34;2072400;28;20796;-77
2021/10/21 02:30:36;;;;;;;23.95;21.48;;;;;;;7.88;100.00;98034.50;2072628;28;20702;-77
2021/10/21 02:31:36;;;;;;;23.30;20.90;;;;;;;7.84;100.00;98026.38;2080126;28;20304;-79
2021/10/21 02:32:38;;;;;;;24.33;21.83;;;;;;;7.82;100.00;98028.53;2072407;28;20278;-78
2021/10/21 02:33:39;;;;;;;22.65;20.55;;;;;;;7.77;100.00;98026.00;2064361;28;20656;-78
2021/10/21 02:34:41;;;;;;;22.83;20.70;;;;;;;7.74;100.00;98023.97;2064361;28;20225;-77
2021/10/21 02:35:45;;;;;;;23.58;21.10;;;;;;;7.70;100.00;98025.63;2072288;28;20223;-77
2021/10/21 02:36:47;;;;;;;23.58;21.48;;;;;;;7.65;100.00;98023.13;2072780;28;20322;-77
2021/10/21 02:37:50;;;;;;;23.05;20.73;;;;;;;7.60;100.00;98020.56;2072222;28;20228;-77
2021/10/21 02:38:52;;;;;;;22.98;20.75;;;;;;;7.58;100.00;98020.09;2072658;28;20224;-77
2021/10/21 02:39:52;;;;;;;22.13;20.10;;;;;;;7.53;100.00;98012.25;2071843;28;20335;-78
2021/10/21 02:40:55;;;;;;;22.60;20.40;;;;;;;7.51;100.00;98027.69;2072343;28;20347;-77
2021/10/21 02:41:58;;;;;;;23.85;21.02;;;;;;;7.48;100.00;98028.28;2080378;28;20227;-77
2021/10/21 02:43:01;;;;;;;23.67;21.08;;;;;;;7.46;100.00;98028.56;2071690;28;20231;-77
2021/10/21 02:44:02;;;;;;;24.65;22.10;;;;;;;7.44;100.00;98024.66;2064594;28;20575;-77
2021/10/21 02:45:05;;;;;;;24.10;21.73;;;;;;;7.40;100.00;98015.75;2071854;28;20603;-77
2021/10/21 02:46:05;;;;;;;23.35;21.13;;;;;;;7.40;100.00;98013.09;2080464;28;20581;-77
2021/10/21 02:47:07;;;;;;;24.80;22.27;;;;;;;7.39;100.00;98014.19;2072336;28;20326;-77
2021/10/21 02:48:08;;;;;;;23.60;21.25;;;;;;;7.35;100.00;98014.75;2065666;28;20304;-77
2021/10/21 02:49:10;;;;;;;23.87;21.47;;;;;;;7.35;100.00;98004.16;2064110;28;20469;-77
2021/10/21 02:50:12;;;;;;;23.67;21.45;;;;;;;7.33;100.00;98001.00;2064178;28;20683;-77
2021/10/21 02:51:13;;;;;;;24.00;21.70;;;;;;;7.33;100.00;98005.53;2072290;28;20307;-77
2021/10/21 02:52:14;;;;;;;24.70;22.07;;;;;;;7.32;100.00;98002.09;2080358;28;20228;-77
2021/10/21 02:53:18;;;;;;;24.00;21.58;;;;;;;7.32;100.00;97993.38;2080237;28;20223;-77
2021/10/21 02:54:18;;;;;;;24.38;21.98;;;;;;;7.32;100.00;98003.97;2080374;28;20280;-77
2021/10/21 02:55:22;;;;;;;23.50;21.30;;;;;;;7.31;100.00;97997.09;2073010;28;20223;-76
2021/10/21 02:56:23;;;;;;;24.13;21.77;;;;;;;7.35;100.00;97988.22;2080079;28;20224;-77
2021/10/21 02:57:29;;;;;;;25.30;22.85;;;;;;;7.34;100.00;97993.84;2080412;28;20264;-77
2021/10/21 02:58:30;;;;;;;24.80;22.42;;;;;;;7.28;100.00;97982.53;2072216;28;20671;-77
2021/10/21 02:59:32;;;;;;;26.70;21.57;;;;;;;7.26;100.00;97982.06;2072134;28;20646;-77
2021/10/21 03:00:32;;;;;;;24.70;22.20;;;;;;;7.26;100.00;97984.72;2072188;28;20285;-77
2021/10/21 03:01:34;;;;;;;23.90;21.70;;;;;;;7.27;100.00;97980.97;2080170;28;20219;-76
2021/10/21 03:02:36;;;;;;;24.58;22.08;;;;;;;7.26;100.00;97978.63;2072188;28;20228;-77
2021/10/21 03:03:41;;;;;;;24.35;21.95;;;;;;;7.20;100.00;97985.91;2072148;28;20254;-77
2021/10/21 03:04:42;;;;;;;24.98;22.35;;;;;;;7.23;100.00;97977.38;2071722;28;20608;-77
2021/10/21 03:05:44;;;;;;;25.13;22.47;;;;;;;7.24;100.00;97981.59;2072140;28;20240;-77
2021/10/21 03:06:45;;;;;;;25.23;22.52;;;;;;;7.26;100.00;97981.28;2072145;28;20220;-77
2021/10/21 03:07:46;;;;;;;31.60;23.03;;;;;;;7.26;100.00;97979.41;2080040;28;20241;-77
2021/10/21 03:08:49;;;;;;;24.58;22.05;;;;;;;7.24;100.00;97978.94;2080365;28;20222;-77
2021/10/21 03:09:51;;;;;;;25.02;22.48;;;;;;;7.25;100.00;97977.06;2072258;28;20224;-77
2021/10/21 03:10:54;;;;;;;24.85;22.48;;;;;;;7.23;100.00;97974.72;2071810;28;20228;-78
2021/10/21 03:11:55;;;;;;;24.85;22.25;;;;;;;7.22;100.00;97978.47;2064312;28;20641;-77
2021/10/21 03:12:57;;;;;;;24.75;22.30;;;;;;;7.20;100.00;97971.88;2072192;28;20302;-77
2021/10/21 03:13:58;;;;;;;28.75;22.88;;;;;;;7.19;100.00;97981.69;2071622;28;20224;-77
2021/10/21 03:15:00;;;;;;;25.37;22.87;;;;;;;7.14;100.00;97976.53;2064078;28;20711;-77
2021/10/21 03:16:00;;;;;;;25.63;22.98;;;;;;;7.14;100.00;97975.75;2072155;28;20732;-77
2021/10/21 03:17:03;;;;;;;24.80;22.37;;;;;;;7.10;100.00;97978.19;2079862;28;20613;-77
2021/10/21 03:18:04;;;;;;;25.08;22.58;;;;;;;7.08;100.00;97977.72;2080201;28;20318;-77
2021/10/21 03:19:08;;;;;;;24.90;22.40;;;;;;;7.05;100.00;97970.38;2080358;28;20223;-77
2021/10/21 03:20:11;;;;;;;24.60;22.17;;;;;;;7.06;100.00;97969.28;2075217;28;20459;-77
2021/10/21 03:21:13;;;;;;;27.73;22.50;;;;;;;7.07;100.00;97970.84;2072400;28;20303;-77
2021/10/21 03:22:15;;;;;;;24.52;22.02;;;;;;;7.07;100.00;97976.16;2071436;28;20234;-77
2021/10/21 03:23:19;;;;;;;28.00;22.05;;;;;;;7.09;100.00;97973.97;2071865;28;20224;-77
2021/10/21 03:24:22;;;;;;;24.50;22.20;;;;;;;7.10;100.00;97975.53;2071874;28;20319;-77
2021/10/21 03:25:25;;;;;;;23.90;21.63;;;;;;;7.12;100.00;97977.88;2063596;28;20311;-78
2021/10/21 03:26:27;;;;;;;24.10;21.67;;;;;;;7.10;100.00;97967.59;2064203;28;20640;-77
2021/10/21 03:27:27;;;;;;;23.65;21.38;;;;;;;7.08;100.00;97969.75;2072004;28;20236;-78
2021/10/21 03:28:29;;;;;;;24.73;22.20;;;;;;;7.09;100.00;97977.41;2063772;28;20261;-77
2021/10/21 03:29:30;;;;;;;24.50;22.00;;;;;;;7.08;100.00;97969.75;2063846;28;20699;-77
2021/10/21 03:30:32;;;;;;;24.40;21.90;;;;;;;7.05;100.00;97967.72;2071129;28;20589;-78
2021/10/21 03:31:36;;;;;;;23.52;21.17;;;;;;;7.06;100.00;97963.97;2072109;28;20224;-77
2021/10/21 03:32:39;;;;;;;23.23;20.98;;;;;;;7.02;100.00;97965.63;2070240;28;20228;-79
2021/10/21 03:33:41;;;;;;;23.20;20.90;;;;;;;7.01;100.00;97961.41;2080356;28;20231;-77
2021/10/21 03:34:42;;;;;;;23.40;21.00;;;;;;;6.98;100.00;97960.16;2079796;28;20725;-76
2021/10/21 03:35:44;;;;;;;26.10;21.83;;;;;;;6.98;100.00;97962.03;2078895;28;20554;-76
2021/10/21 03:36:46;;;;;;;23.52;21.35;;;;;;;6.97;100.00;97957.81;2071907;28;20220;-76
2021/10/21 03:37:48;;;;;;;24.25;21.80;;;;;;;6.93;100.00;97960.25;2080021;28;20234;-75
2021/10/21 03:38:51;;;;;;;24.73;22.33;;;;;;;6.94;100.00;97963.69;2072152;28;20773;-76
2021/10/21 03:39:53;;;;;;;23.58;21.27;;;;;;;6.91;100.00;97970.38;2071833;28;20237;-77
2021/10/21 03:40:55;;;;;;;24.02;21.67;;;;;;;6.91;100.00;97961.66;2079682;28;20314;-77
2021/10/21 03:41:56;;;;;;;25.30;22.83;;;;;;;6.88;100.00;97963.03;2080012;28;20239;-77
2021/10/21 03:42:57;;;;;;;23.07;20.77;;;;;;;6.87;100.00;97960.69;2079887;28;20314;-77
2021/10/21 03:43:58;;;;;;;23.55;21.15;;;;;;;6.84;100.00;97964.69;2080099;28;20231;-76
2021/10/21 03:45:00;;;;;;;24.23;21.80;;;;;;;6.82;100.00;97963.44;2071725;28;20240;-76
2021/10/21 03:46:03;;;;;;;26.70;23.58;;;;;;;6.79;100.00;97952.34;2071986;28;20555;-76
2021/10/21 03:47:05;;;;;;;24.38;21.90;;;;;;;6.83;100.00;97959.69;2080055;28;20239;-77
2021/10/21 03:48:05;;;;;;;24.50;21.92;;;;;;;6.83;100.00;97952.53;2079955;28;20247;-77
2021/10/21 03:49:07;;;;;;;24.67;22.17;;;;;;;6.80;100.00;97951.28;2071785;28;20228;-76
2021/10/21 03:50:08;;;;;;;24.55;22.23;;;;;;;6.80;100.00;97940.66;2071446;28;20231;-77
2021/10/21 03:51:11;;;;;;;24.83;22.42;;;;;;;6.82;100.00;97952.84;2071671;28;20297;-76
2021/10/21 03:52:15;;;;;;;24.08;21.92;;;;;;;6.74;100.00;97947.16;2071617;28;20556;-76
2021/10/21 03:53:16;;;;;;;24.55;22.25;;;;;;;6.75;100.00;97946.06;2063802;28;20850;-77
2021/10/21 03:54:18;;;;;;;24.88;22.58;;;;;;;6.71;100.00;97944.31;2071464;28;20224;-77
2021/10/21 03:55:20;;;;;;;24.65;22.08;;;;;;;6.70;100.00;97954.16;2071600;28;20286;-77
2021/10/21 03:56:22;;;;;;;24.83;22.33;;;;;;;6.68;100.00;97944.91;2071916;28;20254;-77
2021/10/21 03:57:23;;;;;;;25.00;22.60;;;;;;;6.66;100.00;97945.19;2079497;28;20250;-77
2021/10/21 03:58:25;;;;;;;29.13;23.07;;;;;;;6.64;100.00;97942.06;2071790;28;20312;-78
2021/10/21 03:59:27;;;;;;;25.40;22.67;;;;;;;6.63;100.00;97945.81;2071566;28;20290;-77
2021/10/21 04:00:29;;;;;;;24.77;22.27;;;;;;;6.63;100.00;97943.16;2071395;28;20224;-77
2021/10/21 04:01:30;;;;;;;25.00;22.10;;;;;;;6.64;100.00;97947.38;2079795;28;20226;-77
2021/10/21 04:02:33;;;;;;;24.47;22.17;;;;;;;6.64;100.00;97947.38;2079384;28;20233;-77
2021/10/21 04:03:34;;;;;;;25.20;22.52;;;;;;;6.61;100.00;97937.38;2079480;28;20229;-77
2021/10/21 04:04:35;;;;;;;24.27;21.85;;;;;;;6.63;100.00;97935.22;2079832;28;20582;-77
2021/10/21 04:05:38;;;;;;;24.00;21.50;;;;;;;6.64;100.00;97939.41;2071633;28;20311;-77
2021/10/21 04:06:41;;;;;;;24.73;22.30;;;;;;;6.63;100.00;97939.72;2071486;28;20228;-78
2021/10/21 04:07:42;;;;;;;26.85;22.90;;;;;;;6.62;100.00;97938.94;2079684;28;22331;-78
2021/10/21 04:08:43;;;;;;;27.15;22.73;;;;;;;6.61;100.00;97929.44;2071638;28;20255;-77
2021/10/21 04:09:45;;;;;;;24.80;22.20;;;;;;;6.64;100.00;97936.78;2071206;28;20220;-77
2021/10/21 04:10:47;;;;;;;25.85;23.15;;;;;;;6.63;100.00;97932.56;2071428;28;20227;-77
2021/10/21 04:11:49;;;;;;;24.90;22.25;;;;;;;6.69;100.00;97930.56;2071859;28;20215;-77
2021/10/21 04:12:52;;;;;;;25.05;22.50;;;;;;;6.69;100.00;97922.63;2071749;28;20232;-77
2021/10/21 04:13:58;;;;;;;25.30;22.73;;;;;;;6.72;100.00;97922.81;2073470;28;20223;-78
2021/10/21 04:14:59;;;;;;;23.90;21.38;;;;;;;6.73;100.00;97924.38;2065284;28;20217;-77
2021/10/21 04:16:01;;;;;;;24.90;22.37;;;;;;;6.74;100.00;97918.00;2062981;28;20283;-77
2021/10/21 04:17:02;;;;;;;26.70;23.90;;;;;;;6.74;100.00;97918.00;2079196;28;20770;-77
2021/10/21 04:18:04;;;;;;;27.45;24.55;;;;;;;6.77;100.00;97919.25;2079654;28;20224;-77
2021/10/21 04:19:04;;;;;;;24.63;22.27;;;;;;;6.77;100.00;97917.38;2079762;28;20302;-77
2021/10/21 04:20:08;;;;;;;24.77;22.27;;;;;;;6.77;100.00;97912.09;2079814;28;20220;-77
2021/10/21 04:21:11;;;;;;;24.50;22.20;;;;;;;6.75;100.00;97903.66;2070831;28;20227;-77
2021/10/21 04:22:15;;;;;;;25.80;23.10;;;;;;;6.77;100.00;97908.66;2071834;28;20302;-78
2021/10/21 04:23:15;;;;;;;25.40;22.77;;;;;;;6.77;100.00;97914.72;2072292;28;20219;-77
2021/10/21 04:24:17;;;;;;;26.17;22.93;;;;;;;6.77;100.00;97912.09;2071507;28;20228;-77
2021/10/21 04:25:19;;;;;;;25.98;23.15;;;;;;;6.75;100.00;97906.31;2063635;28;20236;-77
2021/10/21 04:26:22;;;;;;;25.65;23.13;;;;;;;6.74;100.00;97899.44;2071618;28;20227;-77
2021/10/21 04:27:27;;;;;;;26.90;24.15;;;;;;;6.76;100.00;97902.56;2079295;28;20229;-78
2021/10/21 04:28:30;;;;;;;26.88;24.17;;;;;;;6.79;100.00;97902.00;2070939;28;20587;-77
2021/10/21 04:29:30;;;;;;;26.67;23.95;;;;;;;6.82;100.00;97897.94;2063061;28;20217;-77
2021/10/21 04:30:32;;;;;;;26.53;23.87;;;;;;;6.82;100.00;97891.88;2071561;28;20307;-77
2021/10/21 04:31:34;;;;;;;24.50;22.10;;;;;;;6.84;100.00;97887.03;2071389;28;20239;-77
2021/10/21 04:32:35;;;;;;;25.52;22.85;;;;;;;6.85;100.00;97883.31;2071460;28;20698;-77
2021/10/21 04:33:39;;;;;;;25.33;22.67;;;;;;;6.86;100.00;97884.88;2071480;28;20228;-78
2021/10/21 04:34:40;;;;;;;25.77;22.98;;;;;;;6.87;100.00;97881.16;2086755;28;20246;-77
2021/10/21 04:35:41;;;;;;;25.00;22.63;;;;;;;6.86;100.00;97884.88;2079656;28;20234;-77
2021/10/21 04:36:42;;;;;;;25.02;22.23;;;;;;;6.87;100.00;97876.63;2079545;28;20238;-77
2021/10/21 04:37:44;;;;;;;25.27;22.60;;;;;;;6.86;100.00;97875.03;2079414;28;20303;-77
2021/10/21 04:38:45;;;;;;;25.50;22.95;;;;;;;6.87;100.00;97875.84;2079769;28;20302;-78
2021/10/21 04:39:46;;;;;;;25.50;23.07;;;;;;;6.87;100.00;97883.81;2079572;28;20219;-78
2021/10/21 04:40:49;;;;;;;25.10;22.60;;;;;;;6.88;100.00;97877.41;2071659;28;20730;-77
2021/10/21 04:41:51;;;;;;;26.23;23.65;;;;;;;6.86;100.00;97877.69;2071556;28;20228;-77
2021/10/21 04:42:53;;;;;;;25.05;22.42;;;;;;;6.86;100.00;97872.38;2079199;28;20242;-79
2021/10/21 04:43:54;;;;;;;26.73;24.08;;;;;;;6.89;100.00;97878.97;2071231;28;20239;-78
2021/10/21 04:44:56;;;;;;;26.07;23.53;;;;;;;6.86;100.00;97863.66;2071470;28;20224;-78